sensor_id;sensor_type;location;lat;lon;timestamp;temperature;humidity
36352;DHT22;22382;44.768;17.206;2024-03-08T00:00:11;6.60;99.90
36352;DHT22;22382;44.768;17.206;2024-03-08T00:02:42;6.60;99.90
36352;DHT22;22382;44.768;17.206;2024-03-08T00:05:10;6.70;99.90
36352;DHT22;22382;44.768;17.206;2024-03-08T00:07:38;6.70;99.90
36352;DHT22;22382;44.768;17.206;2024-03-08T00:10:08;6.70;99.90
36352;DHT22;22382;44.768;17.206;2024-03-08T00:12:41;6.70;99.90
36352;DHT22;22382;44.768;17.206;2024-03-08T00:15:16;6.70;99.90
36352;DHT22;22382;44.768;17.206;2024-03-08T00:17:46;6.70;99.90
36352;DHT22;22382;44.768;17.206;2024-03-08T00:20:15;6.70;99.90
36352;DHT22;22382;44.768;17.206;2024-03-08T00:22:46;6.70;99.90
36352;DHT22;22382;44.768;17.206;2024-03-08T00:25:13;6.70;99.90
36352;DHT22;22382;44.768;17.206;2024-03-08T00:27:41;6.70;99.90
36352;DHT22;22382;44.768;17.206;2024-03-08T00:30:09;6.70;99.90
36352;DHT22;22382;44.768;17.206;2024-03-08T00:32:37;6.70;99.90
36352;DHT22;22382;44.768;17.206;2024-03-08T00:35:05;6.70;99.90
36352;DHT22;22382;44.768;17.206;2024-03-08T00:37:36;6.70;99.90
36352;DHT22;22382;44.768;17.206;2024-03-08T00:40:03;6.70;99.90
36352;DHT22;22382;44.768;17.206;2024-03-08T00:42:31;6.70;99.90
36352;DHT22;22382;44.768;17.206;2024-03-08T00:45:00;6.70;99.90
36352;DHT22;22382;44.768;17.206;2024-03-08T00:47:28;6.70;99.90
36352;DHT22;22382;44.768;17.206;2024-03-08T00:49:55;6.70;99.90
36352;DHT22;22382;44.768;17.206;2024-03-08T00:52:23;6.70;99.90
36352;DHT22;22382;44.768;17.206;2024-03-08T00:54:51;6.70;99.90
36352;DHT22;22382;44.768;17.206;2024-03-08T00:57:18;6.70;99.90
36352;DHT22;22382;44.768;17.206;2024-03-08T00:59:46;6.70;99.90
36352;DHT22;22382;44.768;17.206;2024-03-08T01:02:14;6.70;99.90
36352;DHT22;22382;44.768;17.206;2024-03-08T01:04:41;6.70;99.90
36352;DHT22;22382;44.768;17.206;2024-03-08T01:07:08;6.70;99.90
36352;DHT22;22382;44.768;17.206;2024-03-08T01:09:36;6.70;99.90
36352;DHT22;22382;44.768;17.206;2024-03-08T01:12:03;6.70;99.90
36352;DHT22;22382;44.768;17.206;2024-03-08T01:14:30;6.70;99.90
36352;DHT22;22382;44.768;17.206;2024-03-08T01:16:58;6.70;99.90
36352;DHT22;22382;44.768;17.206;2024-03-08T01:19:26;6.70;99.90
36352;DHT22;22382;44.768;17.206;2024-03-08T01:21:53;6.70;99.90
36352;DHT22;22382;44.768;17.206;2024-03-08T01:24:23;6.70;99.90
36352;DHT22;22382;44.768;17.206;2024-03-08T01:26:52;6.70;99.90
36352;DHT22;22382;44.768;17.206;2024-03-08T01:29:19;6.70;99.90
36352;DHT22;22382;44.768;17.206;2024-03-08T01:31:46;6.70;99.90
36352;DHT22;22382;44.768;17.206;2024-03-08T01:34:13;6.70;99.90
36352;DHT22;22382;44.768;17.206;2024-03-08T01:36:41;6.80;99.90
36352;DHT22;22382;44.768;17.206;2024-03-08T01:39:08;6.70;99.90
36352;DHT22;22382;44.768;17.206;2024-03-08T01:41:36;6.80;99.90
36352;DHT22;22382;44.768;17.206;2024-03-08T01:44:04;6.80;99.90
36352;DHT22;22382;44.768;17.206;2024-03-08T01:46:35;6.80;99.90
36352;DHT22;22382;44.768;17.206;2024-03-08T01:49:02;6.80;99.90
36352;DHT22;22382;44.768;17.206;2024-03-08T01:51:30;6.80;99.90
36352;DHT22;22382;44.768;17.206;2024-03-08T01:53:58;6.80;99.90
36352;DHT22;22382;44.768;17.206;2024-03-08T01:56:29;6.80;99.90
36352;DHT22;22382;44.768;17.206;2024-03-08T01:58:59;6.80;99.90
36352;DHT22;22382;44.768;17.206;2024-03-08T02:01:28;6.90;99.90
36352;DHT22;22382;44.768;17.206;2024-03-08T02:03:55;6.80;99.90
36352;DHT22;22382;44.768;17.206;2024-03-08T02:06:23;6.80;99.90
36352;DHT22;22382;44.768;17.206;2024-03-08T02:08:51;6.80;99.90
36352;DHT22;22382;44.768;17.206;2024-03-08T02:11:18;6.80;99.90
36352;DHT22;22382;44.768;17.206;2024-03-08T02:13:47;6.90;99.90
36352;DHT22;22382;44.768;17.206;2024-03-08T02:16:22;6.80;99.90
36352;DHT22;22382;44.768;17.206;2024-03-08T02:18:49;6.90;99.90
36352;DHT22;22382;44.768;17.206;2024-03-08T02:21:18;6.90;99.90
36352;DHT22;22382;44.768;17.206;2024-03-08T02:23:45;6.90;99.90
36352;DHT22;22382;44.768;17.206;2024-03-08T02:26:13;6.90;99.90
36352;DHT22;22382;44.768;17.206;2024-03-08T02:28:40;6.90;99.90
36352;DHT22;22382;44.768;17.206;2024-03-08T02:31:10;6.90;99.90
36352;DHT22;22382;44.768;17.206;2024-03-08T02:33:37;6.90;99.90
36352;DHT22;22382;44.768;17.206;2024-03-08T02:36:05;6.90;99.90
36352;DHT22;22382;44.768;17.206;2024-03-08T02:38:33;6.90;99.90
36352;DHT22;22382;44.768;17.206;2024-03-08T02:41:00;6.90;99.90
36352;DHT22;22382;44.768;17.206;2024-03-08T02:43:28;6.90;99.90
36352;DHT22;22382;44.768;17.206;2024-03-08T02:45:55;6.80;99.90
36352;DHT22;22382;44.768;17.206;2024-03-08T02:48:22;6.80;99.90
36352;DHT22;22382;44.768;17.206;2024-03-08T02:50:50;6.80;99.90
36352;DHT22;22382;44.768;17.206;2024-03-08T02:53:20;6.70;99.90
36352;DHT22;22382;44.768;17.206;2024-03-08T02:55:49;6.70;99.90
36352;DHT22;22382;44.768;17.206;2024-03-08T02:58:16;6.70;99.90
36352;DHT22;22382;44.768;17.206;2024-03-08T03:00:43;6.80;99.90
36352;DHT22;22382;44.768;17.206;2024-03-08T03:03:12;6.80;99.90
36352;DHT22;22382;44.768;17.206;2024-03-08T03:05:39;6.80;99.90
36352;DHT22;22382;44.768;17.206;2024-03-08T03:08:14;6.80;99.90
36352;DHT22;22382;44.768;17.206;2024-03-08T03:10:44;6.70;99.90
36352;DHT22;22382;44.768;17.206;2024-03-08T03:13:13;6.70;99.90
36352;DHT22;22382;44.768;17.206;2024-03-08T03:15:41;6.90;99.90
36352;DHT22;22382;44.768;17.206;2024-03-08T03:18:11;6.90;99.90
36352;DHT22;22382;44.768;17.206;2024-03-08T03:20:39;6.80;99.90
36352;DHT22;22382;44.768;17.206;2024-03-08T03:23:10;6.80;99.90
36352;DHT22;22382;44.768;17.206;2024-03-08T03:25:42;6.80;99.90
36352;DHT22;22382;44.768;17.206;2024-03-08T03:28:10;6.70;99.90
36352;DHT22;22382;44.768;17.206;2024-03-08T03:30:42;6.70;99.90
36352;DHT22;22382;44.768;17.206;2024-03-08T03:33:09;6.70;99.90
36352;DHT22;22382;44.768;17.206;2024-03-08T03:35:37;6.60;99.90
36352;DHT22;22382;44.768;17.206;2024-03-08T03:38:05;6.60;99.90
36352;DHT22;22382;44.768;17.206;2024-03-08T03:40:36;6.50;99.90
36352;DHT22;22382;44.768;17.206;2024-03-08T03:43:04;6.60;99.90
36352;DHT22;22382;44.768;17.206;2024-03-08T03:45:31;6.60;99.90
36352;DHT22;22382;44.768;17.206;2024-03-08T03:48:08;6.70;99.90
36352;DHT22;22382;44.768;17.206;2024-03-08T03:50:39;6.70;99.90
36352;DHT22;22382;44.768;17.206;2024-03-08T03:53:07;6.70;99.90
36352;DHT22;22382;44.768;17.206;2024-03-08T03:55:37;6.70;99.90
36352;DHT22;22382;44.768;17.206;2024-03-08T03:58:08;6.70;99.90
36352;DHT22;22382;44.768;17.206;2024-03-08T04:00:38;6.70;99.90
36352;DHT22;22382;44.768;17.206;2024-03-08T04:03:05;6.70;99.90
36352;DHT22;22382;44.768;17.206;2024-03-08T04:05:33;6.70;99.90
36352;DHT22;22382;44.768;17.206;2024-03-08T04:08:01;6.70;99.90
36352;DHT22;22382;44.768;17.206;2024-03-08T04:10:30;6.70;99.90
36352;DHT22;22382;44.768;17.206;2024-03-08T04:12:57;6.70;99.90
36352;DHT22;22382;44.768;17.206;2024-03-08T04:15:24;6.70;99.90
36352;DHT22;22382;44.768;17.206;2024-03-08T04:17:51;6.70;99.90
36352;DHT22;22382;44.768;17.206;2024-03-08T04:20:19;6.70;99.90
36352;DHT22;22382;44.768;17.206;2024-03-08T04:22:48;6.70;99.90
36352;DHT22;22382;44.768;17.206;2024-03-08T04:25:17;6.70;99.90
36352;DHT22;22382;44.768;17.206;2024-03-08T04:27:45;6.70;99.90
36352;DHT22;22382;44.768;17.206;2024-03-08T04:30:14;6.70;99.90
36352;DHT22;22382;44.768;17.206;2024-03-08T04:32:41;6.70;99.90
36352;DHT22;22382;44.768;17.206;2024-03-08T04:35:10;6.70;99.90
36352;DHT22;22382;44.768;17.206;2024-03-08T04:37:39;6.70;99.90
36352;DHT22;22382;44.768;17.206;2024-03-08T04:40:07;6.70;99.90
36352;DHT22;22382;44.768;17.206;2024-03-08T04:42:36;6.70;99.90
36352;DHT22;22382;44.768;17.206;2024-03-08T04:45:04;6.70;99.90
36352;DHT22;22382;44.768;17.206;2024-03-08T04:47:31;6.70;99.90
36352;DHT22;22382;44.768;17.206;2024-03-08T04:49:59;6.80;99.90
36352;DHT22;22382;44.768;17.206;2024-03-08T04:52:26;6.80;99.90
36352;DHT22;22382;44.768;17.206;2024-03-08T04:54:55;6.80;99.90
36352;DHT22;22382;44.768;17.206;2024-03-08T04:57:22;6.80;99.90
36352;DHT22;22382;44.768;17.206;2024-03-08T04:59:49;6.80;99.90
36352;DHT22;22382;44.768;17.206;2024-03-08T05:02:17;6.80;99.90
36352;DHT22;22382;44.768;17.206;2024-03-08T05:04:44;6.90;99.90
36352;DHT22;22382;44.768;17.206;2024-03-08T05:07:12;6.90;99.90
36352;DHT22;22382;44.768;17.206;2024-03-08T05:09:39;6.90;99.90
36352;DHT22;22382;44.768;17.206;2024-03-08T05:12:07;6.90;99.90
36352;DHT22;22382;44.768;17.206;2024-03-08T05:14:35;6.90;99.90
36352;DHT22;22382;44.768;17.206;2024-03-08T05:17:02;6.90;99.90
36352;DHT22;22382;44.768;17.206;2024-03-08T05:19:29;6.90;99.90
36352;DHT22;22382;44.768;17.206;2024-03-08T05:22:01;6.90;99.90
36352;DHT22;22382;44.768;17.206;2024-03-08T05:24:28;6.90;99.90
36352;DHT22;22382;44.768;17.206;2024-03-08T05:26:57;6.90;99.90
36352;DHT22;22382;44.768;17.206;2024-03-08T05:29:27;6.90;99.90
36352;DHT22;22382;44.768;17.206;2024-03-08T05:31:56;6.90;99.90
36352;DHT22;22382;44.768;17.206;2024-03-08T05:34:25;6.90;99.90
36352;DHT22;22382;44.768;17.206;2024-03-08T05:36:53;6.90;99.90
36352;DHT22;22382;44.768;17.206;2024-03-08T05:39:22;6.90;99.90
36352;DHT22;22382;44.768;17.206;2024-03-08T05:41:50;7.00;99.90
36352;DHT22;22382;44.768;17.206;2024-03-08T05:44:18;6.90;99.90
36352;DHT22;22382;44.768;17.206;2024-03-08T05:46:45;6.90;99.90
36352;DHT22;22382;44.768;17.206;2024-03-08T05:49:15;6.90;99.90
36352;DHT22;22382;44.768;17.206;2024-03-08T05:51:43;6.90;99.90
36352;DHT22;22382;44.768;17.206;2024-03-08T05:54:11;6.90;99.90
36352;DHT22;22382;44.768;17.206;2024-03-08T05:56:43;6.90;99.90
36352;DHT22;22382;44.768;17.206;2024-03-08T05:59:13;7.00;99.90
36352;DHT22;22382;44.768;17.206;2024-03-08T06:01:40;7.00;99.90
36352;DHT22;22382;44.768;17.206;2024-03-08T06:04:09;7.00;99.90
36352;DHT22;22382;44.768;17.206;2024-03-08T06:06:39;7.10;99.90
36352;DHT22;22382;44.768;17.206;2024-03-08T06:09:08;7.10;99.90
36352;DHT22;22382;44.768;17.206;2024-03-08T06:11:44;7.20;99.90
36352;DHT22;22382;44.768;17.206;2024-03-08T06:14:12;7.20;99.90
36352;DHT22;22382;44.768;17.206;2024-03-08T06:16:39;7.20;99.90
36352;DHT22;22382;44.768;17.206;2024-03-08T06:19:06;7.20;99.90
36352;DHT22;22382;44.768;17.206;2024-03-08T06:21:35;7.20;99.90
36352;DHT22;22382;44.768;17.206;2024-03-08T06:24:02;7.20;99.90
36352;DHT22;22382;44.768;17.206;2024-03-08T06:26:29;7.30;99.90
36352;DHT22;22382;44.768;17.206;2024-03-08T06:28:58;7.20;99.90
36352;DHT22;22382;44.768;17.206;2024-03-08T06:31:25;7.20;99.90
36352;DHT22;22382;44.768;17.206;2024-03-08T06:33:53;7.20;99.90
36352;DHT22;22382;44.768;17.206;2024-03-08T06:36:25;7.20;99.90
36352;DHT22;22382;44.768;17.206;2024-03-08T06:38:52;7.10;99.90
36352;DHT22;22382;44.768;17.206;2024-03-08T06:41:20;7.20;99.90
36352;DHT22;22382;44.768;17.206;2024-03-08T06:43:47;7.30;99.90
36352;DHT22;22382;44.768;17.206;2024-03-08T06:46:19;7.40;99.90
36352;DHT22;22382;44.768;17.206;2024-03-08T06:48:48;7.50;99.90
36352;DHT22;22382;44.768;17.206;2024-03-08T06:51:17;7.60;99.90
36352;DHT22;22382;44.768;17.206;2024-03-08T06:53:45;7.60;99.90
36352;DHT22;22382;44.768;17.206;2024-03-08T06:56:12;7.60;99.90
36352;DHT22;22382;44.768;17.206;2024-03-08T06:58:40;7.90;99.90
36352;DHT22;22382;44.768;17.206;2024-03-08T07:01:07;8.00;99.90
36352;DHT22;22382;44.768;17.206;2024-03-08T07:03:44;8.20;99.90
36352;DHT22;22382;44.768;17.206;2024-03-08T07:06:11;8.30;99.90
36352;DHT22;22382;44.768;17.206;2024-03-08T07:08:39;8.20;99.90
36352;DHT22;22382;44.768;17.206;2024-03-08T07:11:07;8.20;99.90
36352;DHT22;22382;44.768;17.206;2024-03-08T07:13:34;8.20;99.90
36352;DHT22;22382;44.768;17.206;2024-03-08T07:16:01;8.10;99.90
36352;DHT22;22382;44.768;17.206;2024-03-08T07:18:28;8.20;99.90
36352;DHT22;22382;44.768;17.206;2024-03-08T07:20:57;8.20;99.90
36352;DHT22;22382;44.768;17.206;2024-03-08T07:23:25;8.20;99.90
36352;DHT22;22382;44.768;17.206;2024-03-08T07:26:24;8.10;99.90
36352;DHT22;22382;44.768;17.206;2024-03-08T07:28:52;8.10;99.90
36352;DHT22;22382;44.768;17.206;2024-03-08T07:31:21;8.00;99.90
36352;DHT22;22382;44.768;17.206;2024-03-08T07:33:58;8.00;99.90
36352;DHT22;22382;44.768;17.206;2024-03-08T07:36:25;7.90;99.90
36352;DHT22;22382;44.768;17.206;2024-03-08T07:38:52;7.90;99.90
36352;DHT22;22382;44.768;17.206;2024-03-08T07:41:20;7.90;99.90
36352;DHT22;22382;44.768;17.206;2024-03-08T07:43:47;7.90;99.90
36352;DHT22;22382;44.768;17.206;2024-03-08T07:46:15;7.90;99.90
36352;DHT22;22382;44.768;17.206;2024-03-08T07:48:45;8.00;99.90
36352;DHT22;22382;44.768;17.206;2024-03-08T07:51:16;7.90;99.90
36352;DHT22;22382;44.768;17.206;2024-03-08T07:53:45;7.90;99.90
36352;DHT22;22382;44.768;17.206;2024-03-08T07:56:12;7.90;99.90
36352;DHT22;22382;44.768;17.206;2024-03-08T07:58:40;7.90;99.90
36352;DHT22;22382;44.768;17.206;2024-03-08T08:01:08;7.90;99.90
36352;DHT22;22382;44.768;17.206;2024-03-08T08:03:35;7.90;99.90
36352;DHT22;22382;44.768;17.206;2024-03-08T08:06:04;7.90;99.90
36352;DHT22;22382;44.768;17.206;2024-03-08T08:08:31;8.00;99.90
36352;DHT22;22382;44.768;17.206;2024-03-08T08:10:59;8.10;99.90
36352;DHT22;22382;44.768;17.206;2024-03-08T08:13:26;7.90;99.90
36352;DHT22;22382;44.768;17.206;2024-03-08T08:15:54;8.00;99.90
36352;DHT22;22382;44.768;17.206;2024-03-08T08:18:23;8.00;99.90
36352;DHT22;22382;44.768;17.206;2024-03-08T08:20:52;8.10;99.90
36352;DHT22;22382;44.768;17.206;2024-03-08T08:23:19;8.00;99.90
36352;DHT22;22382;44.768;17.206;2024-03-08T08:25:47;7.90;99.90
36352;DHT22;22382;44.768;17.206;2024-03-08T08:28:17;7.90;99.90
36352;DHT22;22382;44.768;17.206;2024-03-08T08:30:45;8.00;99.90
36352;DHT22;22382;44.768;17.206;2024-03-08T08:33:13;8.10;99.90
36352;DHT22;22382;44.768;17.206;2024-03-08T08:35:40;8.10;99.90
36352;DHT22;22382;44.768;17.206;2024-03-08T08:38:08;8.20;99.90
36352;DHT22;22382;44.768;17.206;2024-03-08T08:40:35;8.40;99.90
36352;DHT22;22382;44.768;17.206;2024-03-08T08:43:04;8.50;99.90
36352;DHT22;22382;44.768;17.206;2024-03-08T08:45:31;8.50;99.90
36352;DHT22;22382;44.768;17.206;2024-03-08T08:48:00;8.70;99.90
36352;DHT22;22382;44.768;17.206;2024-03-08T08:50:27;8.70;99.90
36352;DHT22;22382;44.768;17.206;2024-03-08T08:52:55;8.80;99.90
36352;DHT22;22382;44.768;17.206;2024-03-08T08:55:23;8.80;99.90
36352;DHT22;22382;44.768;17.206;2024-03-08T08:57:54;8.60;99.90
36352;DHT22;22382;44.768;17.206;2024-03-08T09:00:21;8.70;99.90
36352;DHT22;22382;44.768;17.206;2024-03-08T09:02:55;8.80;99.90
36352;DHT22;22382;44.768;17.206;2024-03-08T09:05:25;8.80;99.90
36352;DHT22;22382;44.768;17.206;2024-03-08T09:07:53;8.90;99.90
36352;DHT22;22382;44.768;17.206;2024-03-08T09:10:20;9.00;99.90
36352;DHT22;22382;44.768;17.206;2024-03-08T09:12:48;9.10;99.90
36352;DHT22;22382;44.768;17.206;2024-03-08T09:15:15;9.10;99.90
36352;DHT22;22382;44.768;17.206;2024-03-08T09:17:47;9.30;99.90
36352;DHT22;22382;44.768;17.206;2024-03-08T09:20:15;9.50;99.90
36352;DHT22;22382;44.768;17.206;2024-03-08T09:22:44;9.40;99.90
36352;DHT22;22382;44.768;17.206;2024-03-08T09:25:13;9.30;99.90
36352;DHT22;22382;44.768;17.206;2024-03-08T09:27:41;9.20;99.90
36352;DHT22;22382;44.768;17.206;2024-03-08T09:30:09;9.10;99.90
36352;DHT22;22382;44.768;17.206;2024-03-08T09:32:36;9.00;99.90
36352;DHT22;22382;44.768;17.206;2024-03-08T09:35:05;9.00;99.90
36352;DHT22;22382;44.768;17.206;2024-03-08T09:37:36;9.00;99.90
36352;DHT22;22382;44.768;17.206;2024-03-08T09:40:05;9.10;99.90
36352;DHT22;22382;44.768;17.206;2024-03-08T09:42:37;9.10;99.90
36352;DHT22;22382;44.768;17.206;2024-03-08T09:45:09;9.00;99.90
36352;DHT22;22382;44.768;17.206;2024-03-08T09:47:44;9.10;99.90
36352;DHT22;22382;44.768;17.206;2024-03-08T09:50:12;9.30;99.90
36352;DHT22;22382;44.768;17.206;2024-03-08T09:52:42;9.40;99.90
36352;DHT22;22382;44.768;17.206;2024-03-08T09:55:14;9.50;99.90
36352;DHT22;22382;44.768;17.206;2024-03-08T09:57:44;9.50;99.90
36352;DHT22;22382;44.768;17.206;2024-03-08T10:00:32;9.40;99.90
36352;DHT22;22382;44.768;17.206;2024-03-08T10:03:02;9.30;99.90
36352;DHT22;22382;44.768;17.206;2024-03-08T10:05:33;9.20;99.90
36352;DHT22;22382;44.768;17.206;2024-03-08T10:08:00;9.10;99.90
36352;DHT22;22382;44.768;17.206;2024-03-08T10:10:28;9.00;99.90
36352;DHT22;22382;44.768;17.206;2024-03-08T10:12:55;9.20;99.90
36352;DHT22;22382;44.768;17.206;2024-03-08T10:15:23;9.40;99.90
36352;DHT22;22382;44.768;17.206;2024-03-08T10:17:51;9.50;99.90
36352;DHT22;22382;44.768;17.206;2024-03-08T10:20:20;9.60;99.90
36352;DHT22;22382;44.768;17.206;2024-03-08T10:22:47;9.60;99.90
36352;DHT22;22382;44.768;17.206;2024-03-08T10:25:33;9.50;99.90
36352;DHT22;22382;44.768;17.206;2024-03-08T10:28:03;9.50;99.90
36352;DHT22;22382;44.768;17.206;2024-03-08T10:30:34;9.40;99.90
36352;DHT22;22382;44.768;17.206;2024-03-08T10:33:01;9.60;99.90
36352;DHT22;22382;44.768;17.206;2024-03-08T10:35:32;9.80;99.90
36352;DHT22;22382;44.768;17.206;2024-03-08T10:38:01;9.80;99.90
36352;DHT22;22382;44.768;17.206;2024-03-08T10:40:32;10.00;99.90
36352;DHT22;22382;44.768;17.206;2024-03-08T10:43:00;10.10;99.90
36352;DHT22;22382;44.768;17.206;2024-03-08T10:45:38;10.20;99.90
36352;DHT22;22382;44.768;17.206;2024-03-08T10:48:19;10.30;99.90
36352;DHT22;22382;44.768;17.206;2024-03-08T10:50:52;10.40;99.90
36352;DHT22;22382;44.768;17.206;2024-03-08T10:53:23;10.50;99.90
36352;DHT22;22382;44.768;17.206;2024-03-08T10:55:51;10.40;99.90
36352;DHT22;22382;44.768;17.206;2024-03-08T10:58:22;10.20;99.90
36352;DHT22;22382;44.768;17.206;2024-03-08T11:00:56;10.10;99.90
36352;DHT22;22382;44.768;17.206;2024-03-08T11:03:53;10.20;99.90
36352;DHT22;22382;44.768;17.206;2024-03-08T11:06:31;10.10;99.90
36352;DHT22;22382;44.768;17.206;2024-03-08T11:09:35;10.10;99.90
36352;DHT22;22382;44.768;17.206;2024-03-08T11:14:49;10.30;99.90
36352;DHT22;22382;44.768;17.206;2024-03-08T11:20:00;10.50;99.90
36352;DHT22;22382;44.768;17.206;2024-03-08T11:22:33;10.40;99.90
36352;DHT22;22382;44.768;17.206;2024-03-08T11:25:05;10.10;99.90
36352;DHT22;22382;44.768;17.206;2024-03-08T11:27:39;10.20;99.90
36352;DHT22;22382;44.768;17.206;2024-03-08T11:30:22;10.20;99.90
36352;DHT22;22382;44.768;17.206;2024-03-08T11:32:51;10.50;99.90
36352;DHT22;22382;44.768;17.206;2024-03-08T11:35:22;10.60;99.90
36352;DHT22;22382;44.768;17.206;2024-03-08T11:37:50;10.30;99.90
36352;DHT22;22382;44.768;17.206;2024-03-08T11:40:18;10.10;99.90
36352;DHT22;22382;44.768;17.206;2024-03-08T11:42:48;10.20;99.90
36352;DHT22;22382;44.768;17.206;2024-03-08T11:45:16;10.40;99.90
36352;DHT22;22382;44.768;17.206;2024-03-08T11:47:45;10.40;99.90
36352;DHT22;22382;44.768;17.206;2024-03-08T11:50:17;10.60;99.90
36352;DHT22;22382;44.768;17.206;2024-03-08T11:52:48;10.60;99.90
36352;DHT22;22382;44.768;17.206;2024-03-08T11:55:16;10.70;99.90
36352;DHT22;22382;44.768;17.206;2024-03-08T11:57:47;10.80;99.90
36352;DHT22;22382;44.768;17.206;2024-03-08T12:00:16;10.80;99.90
36352;DHT22;22382;44.768;17.206;2024-03-08T12:03:07;10.80;99.90
36352;DHT22;22382;44.768;17.206;2024-03-08T12:05:36;10.90;99.90
36352;DHT22;22382;44.768;17.206;2024-03-08T12:08:05;10.60;99.90
36352;DHT22;22382;44.768;17.206;2024-03-08T12:10:40;10.60;99.90
36352;DHT22;22382;44.768;17.206;2024-03-08T12:13:08;10.50;99.90
36352;DHT22;22382;44.768;17.206;2024-03-08T12:15:40;10.70;99.90
36352;DHT22;22382;44.768;17.206;2024-03-08T12:18:08;10.70;99.90
36352;DHT22;22382;44.768;17.206;2024-03-08T12:20:37;10.70;99.90
36352;DHT22;22382;44.768;17.206;2024-03-08T12:23:06;10.70;99.90
36352;DHT22;22382;44.768;17.206;2024-03-08T12:25:40;11.00;99.90
36352;DHT22;22382;44.768;17.206;2024-03-08T12:28:11;11.20;99.90
36352;DHT22;22382;44.768;17.206;2024-03-08T12:30:50;11.30;99.90
36352;DHT22;22382;44.768;17.206;2024-03-08T12:33:22;11.50;99.90
36352;DHT22;22382;44.768;17.206;2024-03-08T12:35:54;11.30;99.90
36352;DHT22;22382;44.768;17.206;2024-03-08T12:38:23;11.60;99.50
36352;DHT22;22382;44.768;17.206;2024-03-08T12:41:00;11.40;99.30
36352;DHT22;22382;44.768;17.206;2024-03-08T12:43:28;11.30;99.80
36352;DHT22;22382;44.768;17.206;2024-03-08T12:46:00;11.60;98.50
36352;DHT22;22382;44.768;17.206;2024-03-08T12:48:28;11.60;98.30
36352;DHT22;22382;44.768;17.206;2024-03-08T12:50:55;11.20;98.80
36352;DHT22;22382;44.768;17.206;2024-03-08T12:53:22;11.40;98.70
36352;DHT22;22382;44.768;17.206;2024-03-08T12:55:50;11.50;98.80
36352;DHT22;22382;44.768;17.206;2024-03-08T12:58:18;11.50;99.00
36352;DHT22;22382;44.768;17.206;2024-03-08T13:00:47;11.70;98.70
36352;DHT22;22382;44.768;17.206;2024-03-08T13:03:20;11.70;99.20
36352;DHT22;22382;44.768;17.206;2024-03-08T13:05:48;11.90;97.60
36352;DHT22;22382;44.768;17.206;2024-03-08T13:08:16;11.80;97.00
36352;DHT22;22382;44.768;17.206;2024-03-08T13:10:45;11.80;96.60
36352;DHT22;22382;44.768;17.206;2024-03-08T13:13:12;11.90;96.40
36352;DHT22;22382;44.768;17.206;2024-03-08T13:15:44;11.70;97.20
36352;DHT22;22382;44.768;17.206;2024-03-08T13:18:11;11.80;97.50
36352;DHT22;22382;44.768;17.206;2024-03-08T13:20:38;11.90;97.20
36352;DHT22;22382;44.768;17.206;2024-03-08T13:23:13;11.80;96.90
36352;DHT22;22382;44.768;17.206;2024-03-08T13:25:40;12.00;96.20
36352;DHT22;22382;44.768;17.206;2024-03-08T13:28:08;12.00;96.40
36352;DHT22;22382;44.768;17.206;2024-03-08T13:30:36;11.80;97.10
36352;DHT22;22382;44.768;17.206;2024-03-08T13:33:03;12.00;96.90
36352;DHT22;22382;44.768;17.206;2024-03-08T13:35:32;11.90;96.60
36352;DHT22;22382;44.768;17.206;2024-03-08T13:38:01;11.70;96.40
36352;DHT22;22382;44.768;17.206;2024-03-08T13:40:32;11.80;96.00
36352;DHT22;22382;44.768;17.206;2024-03-08T13:42:59;11.80;95.90
36352;DHT22;22382;44.768;17.206;2024-03-08T13:45:28;11.90;95.70
36352;DHT22;22382;44.768;17.206;2024-03-08T13:47:55;11.70;95.80
36352;DHT22;22382;44.768;17.206;2024-03-08T13:50:23;11.80;96.40
36352;DHT22;22382;44.768;17.206;2024-03-08T13:52:51;11.90;95.60
36352;DHT22;22382;44.768;17.206;2024-03-08T13:55:24;11.70;95.50
36352;DHT22;22382;44.768;17.206;2024-03-08T13:57:54;11.40;95.20
36352;DHT22;22382;44.768;17.206;2024-03-08T14:00:25;11.00;96.90
36352;DHT22;22382;44.768;17.206;2024-03-08T14:02:54;10.90;98.00
36352;DHT22;22382;44.768;17.206;2024-03-08T14:05:22;11.20;97.90
36352;DHT22;22382;44.768;17.206;2024-03-08T14:07:49;11.40;97.30
36352;DHT22;22382;44.768;17.206;2024-03-08T14:10:17;11.10;97.30
36352;DHT22;22382;44.768;17.206;2024-03-08T14:12:48;11.10;97.30
36352;DHT22;22382;44.768;17.206;2024-03-08T14:15:17;11.40;97.50
36352;DHT22;22382;44.768;17.206;2024-03-08T14:17:45;11.40;96.10
36352;DHT22;22382;44.768;17.206;2024-03-08T14:20:19;11.30;96.30
36352;DHT22;22382;44.768;17.206;2024-03-08T14:22:46;11.20;95.60
36352;DHT22;22382;44.768;17.206;2024-03-08T14:25:13;11.20;95.90
36352;DHT22;22382;44.768;17.206;2024-03-08T14:27:45;11.20;96.20
36352;DHT22;22382;44.768;17.206;2024-03-08T14:30:13;11.00;96.10
36352;DHT22;22382;44.768;17.206;2024-03-08T14:32:45;11.00;95.90
36352;DHT22;22382;44.768;17.206;2024-03-08T14:35:14;11.00;96.20
36352;DHT22;22382;44.768;17.206;2024-03-08T14:37:41;11.10;95.80
36352;DHT22;22382;44.768;17.206;2024-03-08T14:40:10;11.20;95.50
36352;DHT22;22382;44.768;17.206;2024-03-08T14:42:37;11.40;95.80
36352;DHT22;22382;44.768;17.206;2024-03-08T14:45:09;11.70;95.50
36352;DHT22;22382;44.768;17.206;2024-03-08T14:47:36;12.00;94.40
36352;DHT22;22382;44.768;17.206;2024-03-08T14:50:05;12.20;93.10
36352;DHT22;22382;44.768;17.206;2024-03-08T14:52:35;12.40;92.80
36352;DHT22;22382;44.768;17.206;2024-03-08T14:55:03;12.60;92.50
36352;DHT22;22382;44.768;17.206;2024-03-08T14:57:33;12.70;91.80
36352;DHT22;22382;44.768;17.206;2024-03-08T15:00:00;12.50;91.00
36352;DHT22;22382;44.768;17.206;2024-03-08T15:02:33;12.20;91.70
36352;DHT22;22382;44.768;17.206;2024-03-08T15:05:06;12.00;92.30
36352;DHT22;22382;44.768;17.206;2024-03-08T15:07:38;11.80;92.40
36352;DHT22;22382;44.768;17.206;2024-03-08T15:10:09;11.80;93.10
36352;DHT22;22382;44.768;17.206;2024-03-08T15:12:45;11.70;92.80
36352;DHT22;22382;44.768;17.206;2024-03-08T15:15:18;11.80;93.70
36352;DHT22;22382;44.768;17.206;2024-03-08T15:17:45;11.70;92.60
36352;DHT22;22382;44.768;17.206;2024-03-08T15:20:14;11.20;92.50
36352;DHT22;22382;44.768;17.206;2024-03-08T15:22:56;11.10;93.40
36352;DHT22;22382;44.768;17.206;2024-03-08T15:25:26;11.10;93.50
36352;DHT22;22382;44.768;17.206;2024-03-08T15:27:56;11.00;94.00
36352;DHT22;22382;44.768;17.206;2024-03-08T15:30:25;11.00;94.00
36352;DHT22;22382;44.768;17.206;2024-03-08T15:32:58;10.90;94.20
36352;DHT22;22382;44.768;17.206;2024-03-08T15:35:27;10.90;95.00
36352;DHT22;22382;44.768;17.206;2024-03-08T15:37:54;10.80;94.60
36352;DHT22;22382;44.768;17.206;2024-03-08T15:40:24;10.70;95.80
36352;DHT22;22382;44.768;17.206;2024-03-08T15:42:55;10.70;95.50